createdAt,value
2023-05-02T04:46:16.926Z,55.22
2023-05-02T04:49:21.885Z,54.62
2023-05-02T04:52:26.109Z,55.27
2023-05-02T04:55:30.421Z,55.03
2023-05-02T04:58:35.367Z,54.60
2023-05-02T05:01:45.761Z,55.11
2023-05-02T05:04:50.050Z,54.64
2023-05-02T05:07:56.250Z,54.51
2023-05-02T05:11:05.287Z,54.89
2023-05-02T05:14:10.361Z,54.40
2023-05-02T05:17:18.423Z,55.21
2023-05-02T05:20:22.800Z,55.39
2023-05-02T05:23:29.681Z,55.29
2023-05-02T05:26:33.980Z,54.67
2023-05-02T05:29:39.517Z,55.12
2023-05-02T05:32:46.368Z,55.35
2023-05-02T05:35:50.389Z,54.99
2023-05-02T05:38:54.708Z,54.77
2023-05-02T05:41:59.267Z,54.19
2023-05-02T05:45:04.689Z,54.55
2023-05-02T05:48:11.062Z,54.16
2023-05-02T05:51:20.008Z,53.90
2023-05-02T05:54:24.692Z,53.84
2023-05-02T05:57:29.198Z,53.52
2023-05-02T06:00:36.833Z,53.08
2023-05-02T06:03:42.904Z,53.05
2023-05-02T06:06:47.259Z,52.50
2023-05-02T06:09:56.881Z,52.44
2023-05-02T06:13:01.712Z,52.25
2023-05-02T06:16:19.846Z,51.89
2023-05-02T06:19:25.497Z,52.25
2023-05-02T06:22:30.199Z,53.40
2023-05-02T06:25:35.041Z,52.58
2023-05-02T06:28:40.017Z,51.16
2023-05-02T06:31:44.599Z,50.76
2023-05-02T06:34:50.684Z,52.36
2023-05-02T06:37:55.539Z,51.71
2023-05-02T06:41:03.762Z,51.52
2023-05-02T06:44:08.223Z,51.07
2023-05-02T06:47:12.734Z,51.61
2023-05-02T06:50:19.871Z,51.79
2023-05-02T06:53:25.090Z,51.78
2023-05-02T06:56:29.911Z,52.10
2023-05-02T06:59:39.058Z,51.48
2023-05-02T07:02:43.781Z,51.95
2023-05-02T07:05:49.824Z,51.82
2023-05-02T07:08:54.441Z,51.77
2023-05-02T07:11:59.096Z,51.61
2023-05-02T07:15:03.653Z,51.71
2023-05-02T07:18:08.310Z,51.24
2023-05-02T07:21:14.159Z,51.11
2023-05-02T07:24:19.073Z,50.84
2023-05-02T07:27:24.027Z,51.92
2023-05-02T07:30:29.380Z,51.56
2023-05-02T07:33:34.446Z,51.01
2023-05-02T07:36:41.244Z,50.61
2023-05-02T07:39:51.540Z,50.60
2023-05-02T07:42:56.091Z,50.95
2023-05-02T07:46:09.857Z,51.46
2023-05-02T07:49:15.929Z,50.99
2023-05-02T07:52:26.232Z,50.29
2023-05-02T07:55:34.642Z,50.60
2023-05-02T07:58:39.150Z,50.43
2023-05-02T08:01:44.554Z,50.46
2023-05-02T08:04:49.639Z,50.17
2023-05-02T08:07:55.814Z,50.23
2023-05-02T08:11:00.693Z,50.42
2023-05-02T08:14:05.004Z,50.80
2023-05-02T08:17:09.519Z,50.38
2023-05-02T08:20:14.182Z,50.19
2023-05-02T08:23:20.660Z,50.40
2023-05-02T08:26:25.036Z,50.86
2023-05-02T08:29:30.072Z,51.10
2023-05-02T08:32:35.038Z,50.59
2023-05-02T08:35:40.377Z,50.40
2023-05-02T08:38:48.939Z,50.55
2023-05-02T08:41:54.300Z,50.48
2023-05-02T08:45:04.297Z,50.62
2023-05-02T08:48:12.147Z,51.01
2023-05-02T08:51:22.797Z,51.68
2023-05-02T08:54:30.036Z,51.30
2023-05-02T08:57:34.928Z,51.46
2023-05-02T09:00:42.608Z,51.60
2023-05-02T09:03:52.579Z,52.01
2023-05-02T09:06:57.797Z,50.63
2023-05-02T09:10:05.977Z,50.72
2023-05-02T09:13:34.412Z,51.33
2023-05-02T09:16:45.873Z,51.14
2023-05-02T09:20:02.390Z,51.04
2023-05-02T09:23:07.576Z,50.66
2023-05-02T09:26:20.694Z,51.10
2023-05-02T09:29:25.725Z,51.29
2023-05-02T09:32:51.451Z,50.77
2023-05-02T09:35:59.804Z,50.61
2023-05-02T09:39:16.576Z,50.59
2023-05-02T09:42:33.192Z,50.62
2023-05-02T09:45:38.175Z,50.11
2023-05-02T09:48:57.315Z,49.95
2023-05-02T09:52:13.172Z,51.17
2023-05-02T09:55:22.966Z,51.18
2023-05-02T09:58:31.055Z,51.48
2023-05-02T10:01:35.887Z,51.15
2023-05-02T10:04:48.904Z,51.50
2023-05-02T10:07:53.837Z,51.25
2023-05-02T10:11:01.382Z,51.29
2023-05-02T10:14:13.706Z,50.37
2023-05-02T10:17:30.017Z,51.36
2023-05-02T10:20:44.153Z,51.13
2023-05-02T10:23:50.490Z,50.96
2023-05-02T10:26:56.132Z,50.24
2023-05-02T10:30:04.590Z,50.76
2023-05-02T10:33:09.558Z,50.23
2023-05-02T10:36:14.514Z,50.67
2023-05-02T10:39:20.076Z,50.66
2023-05-02T10:42:25.406Z,50.63
2023-05-02T10:45:35.854Z,50.59
2023-05-02T10:48:40.892Z,50.85
2023-05-02T10:51:45.491Z,51.26
2023-05-02T10:54:50.930Z,50.23
2023-05-02T10:58:23.850Z,49.83
2023-05-02T11:01:40.241Z,50.31
2023-05-02T11:05:09.721Z,50.34
2023-05-02T11:08:33.204Z,50.44
2023-05-02T11:11:43.285Z,50.61
2023-05-02T11:14:50.309Z,49.57
2023-05-02T11:18:08.201Z,49.47
2023-05-02T11:21:30.034Z,49.57
2023-05-02T11:24:41.677Z,49.93
2023-05-02T11:27:49.452Z,49.13
2023-05-02T11:30:55.412Z,49.74
2023-05-02T11:34:03.367Z,49.93
2023-05-02T11:37:14.930Z,49.42
2023-05-02T11:40:20.778Z,50.03
2023-05-02T11:43:28.716Z,49.24
2023-05-02T11:46:35.581Z,49.95
2023-05-02T11:49:41.629Z,49.99
2023-05-02T11:52:51.660Z,49.49
2023-05-02T11:56:00.175Z,49.65
2023-05-02T11:59:06.805Z,49.80
2023-05-02T12:02:11.301Z,50.22
2023-05-02T12:05:31.841Z,49.86
2023-05-02T12:08:36.083Z,49.93
2023-05-02T12:11:40.716Z,49.83
2023-05-02T12:14:45.658Z,50.09
2023-05-02T12:17:52.466Z,50.38
2023-05-02T12:20:59.101Z,51.25
2023-05-02T12:24:05.309Z,50.28
2023-05-02T12:27:15.110Z,50.72
2023-05-02T12:30:28.553Z,50.99
2023-05-02T12:33:44.511Z,51.05
2023-05-02T12:36:50.632Z,50.89
2023-05-02T12:40:01.042Z,50.31
2023-05-02T12:43:10.749Z,50.88
2023-05-02T12:46:16.308Z,50.73
2023-05-02T12:49:21.006Z,50.47
2023-05-02T12:52:59.447Z,51.04
2023-05-02T12:56:04.982Z,50.90
2023-05-02T12:59:10.404Z,50.46
2023-05-02T13:02:15.510Z,50.12
2023-05-02T13:05:21.947Z,50.47
2023-05-02T13:08:27.813Z,50.23
2023-05-02T13:11:33.117Z,50.11
2023-05-02T13:14:43.203Z,49.82
2023-05-02T13:17:49.093Z,50.18
2023-05-02T13:20:54.072Z,49.34
2023-05-02T13:24:04.543Z,49.31
2023-05-02T13:27:09.687Z,49.40
2023-05-02T13:30:14.677Z,49.72
2023-05-02T13:33:19.654Z,49.64
2023-05-02T13:36:24.908Z,50.11
2023-05-02T13:39:31.006Z,50.30
2023-05-02T13:42:35.940Z,50.25
2023-05-02T13:45:47.850Z,49.95
2023-05-02T13:48:52.830Z,49.83
2023-05-02T13:51:57.399Z,49.72
2023-05-02T13:55:03.596Z,49.76
2023-05-02T13:58:08.301Z,50.00
2023-05-02T14:01:12.640Z,49.41
2023-05-02T14:04:17.433Z,49.82
2023-05-02T14:07:21.589Z,50.08
2023-05-02T14:10:27.674Z,49.58
2023-05-02T14:13:31.718Z,50.02
2023-05-02T14:16:36.512Z,50.24
2023-05-02T14:19:40.884Z,49.18
2023-05-02T14:22:45.408Z,49.78
2023-05-02T14:25:50.935Z,49.87
2023-05-02T14:28:55.720Z,49.80
2023-05-02T14:32:07.351Z,48.68
2023-05-02T14:35:12.787Z,49.84
2023-05-02T14:38:17.030Z,49.77
2023-05-02T14:41:24.329Z,49.81
2023-05-02T14:44:28.664Z,49.65
2023-05-02T14:47:34.624Z,50.00
2023-05-02T14:50:40.243Z,49.96
2023-05-02T14:53:45.475Z,49.70
2023-05-02T14:56:53.142Z,50.21
2023-05-02T14:59:58.075Z,50.31
2023-05-02T15:03:04.396Z,49.61
2023-05-02T15:06:10.543Z,49.35
2023-05-02T15:09:14.876Z,49.49
2023-05-02T15:12:20.780Z,49.62
2023-05-02T15:15:25.673Z,50.25
2023-05-02T15:18:30.575Z,50.09
2023-05-02T15:21:35.533Z,50.24
2023-05-02T15:24:40.180Z,50.18
2023-05-02T15:27:46.245Z,50.11
2023-05-02T15:30:51.251Z,50.04
2023-05-02T15:33:55.870Z,50.16
2023-05-02T15:37:02.243Z,50.47
2023-05-02T15:40:09.286Z,50.41
2023-05-02T15:43:15.755Z,50.33
2023-05-02T15:46:20.605Z,51.07
2023-05-02T15:49:31.913Z,50.91
2023-05-02T15:52:36.436Z,51.08
2023-05-02T15:55:48.024Z,51.34
2023-05-02T15:58:54.194Z,51.10
2023-05-02T16:02:04.217Z,51.32
2023-05-02T16:05:09.437Z,51.26
2023-05-02T16:08:14.501Z,51.42
2023-05-02T16:11:19.079Z,51.58
2023-05-02T16:14:26.914Z,51.93
2023-05-02T16:17:31.363Z,52.05
2023-05-02T16:20:37.416Z,51.90
2023-05-02T16:23:42.473Z,51.63
2023-05-02T16:26:47.467Z,52.38
2023-05-02T16:29:53.078Z,52.70
2023-05-02T16:32:57.897Z,52.45
2023-05-02T16:36:03.012Z,52.56
2023-05-02T16:39:07.574Z,52.65
2023-05-02T16:42:15.666Z,52.78
2023-05-02T16:45:21.864Z,52.68
2023-05-02T16:48:26.064Z,52.71
2023-05-02T16:51:34.717Z,53.30
2023-05-02T16:54:39.173Z,53.47
2023-05-02T16:57:43.815Z,54.10
2023-05-02T17:00:49.365Z,53.57
2023-05-02T17:03:53.899Z,53.72
2023-05-02T17:06:58.062Z,54.42
2023-05-02T17:10:09.590Z,54.47
2023-05-02T17:13:13.890Z,53.76
2023-05-02T17:16:20.821Z,54.80
2023-05-02T17:19:26.218Z,54.50
2023-05-02T17:22:31.124Z,55.29
2023-05-02T17:25:35.424Z,55.04
2023-05-02T17:28:43.676Z,55.46
2023-05-02T17:31:49.284Z,55.66
2023-05-02T17:34:53.917Z,56.47
2023-05-02T17:37:58.360Z,55.85
2023-05-02T17:41:03.254Z,54.64
2023-05-02T17:44:07.494Z,54.59
2023-05-02T17:47:13.581Z,55.15
2023-05-02T17:50:17.813Z,55.76
2023-05-02T17:53:22.825Z,55.67
2023-05-02T17:56:26.917Z,55.71
2023-05-02T17:59:31.624Z,55.88
2023-05-02T18:02:38.703Z,55.91
2023-05-02T18:05:44.562Z,56.06
2023-05-02T18:08:48.611Z,57.17
2023-05-02T18:11:53.673Z,56.65
2023-05-02T18:14:57.656Z,56.52
2023-05-02T18:18:07.808Z,56.59
2023-05-02T18:21:12.136Z,56.61
2023-05-02T18:24:16.680Z,56.65
2023-05-02T18:27:21.023Z,57.52
2023-05-02T18:30:25.704Z,58.17
2023-05-02T18:33:31.443Z,57.90
2023-05-02T18:36:41.664Z,58.67
2023-05-02T18:39:46.384Z,60.57
2023-05-02T18:42:56.852Z,59.42
2023-05-02T18:46:01.023Z,60.11
2023-05-02T18:49:09.282Z,60.21
2023-05-02T18:52:13.489Z,60.20
2023-05-02T18:55:18.234Z,60.10
2023-05-02T18:58:22.710Z,59.73
2023-05-02T19:01:27.384Z,61.90
2023-05-02T19:04:34.072Z,63.47
2023-05-02T19:07:43.616Z,69.70
2023-05-02T19:10:47.814Z,71.99
2023-05-02T19:13:52.614Z,67.63
2023-05-02T19:16:57.021Z,63.72
2023-05-02T19:20:06.688Z,65.74
2023-05-02T19:23:20.138Z,66.61
2023-05-02T19:26:25.693Z,67.65
2023-05-02T19:29:30.214Z,72.08
2023-05-02T19:32:34.728Z,70.86
2023-05-02T19:35:40.561Z,66.88
2023-05-02T19:38:48.615Z,69.68
2023-05-02T19:41:52.921Z,67.47
2023-05-02T19:44:57.362Z,72.49
2023-05-02T19:48:01.546Z,69.63
2023-05-02T19:51:08.133Z,69.89
2023-05-02T19:54:12.289Z,69.92
2023-05-02T19:57:18.143Z,69.76
2023-05-02T20:00:22.375Z,70.11
2023-05-02T20:03:27.201Z,73.15
2023-05-02T20:06:34.140Z,71.93
2023-05-02T20:09:38.634Z,72.49
2023-05-02T20:12:45.107Z,71.02
2023-05-02T20:15:52.051Z,70.18
2023-05-02T20:18:56.302Z,70.60
